Time;durP1;ratioP1;P1;durP2;ratioP2;P2;SDS_P1;SDS_P2;PMS_P1;PMS_P2;Temp;Humidity;BMP_temperature;BMP_pressure;BME280_temperature;BME280_humidity;BME280_pressure;Samples;Min_cycle;Max_cycle;Signal;HPM_P1;HPM_P2
2021/10/04 00:01:03;;;;;;;10.93;6.90;;;10.60;99.90;;;;;;5038051;28;20653;-96
2021/10/04 00:03:29;;;;;;;11.15;6.60;;;10.60;99.90;;;;;;5036517;28;20187;-96
2021/10/04 00:05:54;;;;;;;13.90;6.43;;;10.20;99.90;;;;;;5019918;28;20231;-96
2021/10/04 00:08:20;;;;;;;7.28;5.35;;;10.20;99.90;;;;;;5020783;28;20184;-96
2021/10/04 00:10:46;;;;;;;11.47;5.87;;;10.30;99.90;;;;;;5054177;28;20259;-96
2021/10/04 00:13:12;;;;;;;13.40;6.13;;;10.20;99.90;;;;;;5021018;28;20175;-96
2021/10/04 00:15:37;;;;;;;16.20;6.60;;;10.40;99.90;;;;;;5037303;28;20172;-96
2021/10/04 00:18:03;;;;;;;8.35;6.22;;;10.60;99.90;;;;;;5043221;28;20203;-95
2021/10/04 00:20:29;;;;;;;12.48;6.43;;;10.70;99.90;;;;;;5048842;28;20184;-96
2021/10/04 00:22:56;;;;;;;9.40;6.07;;;10.40;99.90;;;;;;5059273;28;20172;-96
2021/10/04 00:25:22;;;;;;;11.97;5.90;;;9.50;99.90;;;;;;5041062;28;20266;-96
2021/10/04 00:27:50;;;;;;;10.30;5.73;;;10.50;99.90;;;;;;5040096;28;20180;-96
2021/10/04 00:30:17;;;;;;;9.50;6.03;;;10.30;99.90;;;;;;5041142;28;20176;-96
2021/10/04 00:32:46;;;;;;;9.17;5.40;;;10.30;99.90;;;;;;5041065;28;20168;-96
2021/10/04 00:35:17;;;;;;;10.00;5.80;;;10.50;99.90;;;;;;5058106;28;20176;-96
2021/10/04 00:37:43;;;;;;;8.67;5.30;;;10.50;99.90;;;;;;5051554;28;20223;-96
2021/10/04 00:40:12;;;;;;;11.63;5.50;;;8.10;99.90;;;;;;5056826;28;20232;-96
2021/10/04 00:42:39;;;;;;;10.30;5.70;;;10.50;99.90;;;;;;5060208;28;20226;-91
2021/10/04 00:45:06;;;;;;;11.90;5.83;;;10.40;99.90;;;;;;5063822;28;20160;-96
2021/10/04 00:47:32;;;;;;;6.87;5.07;;;10.30;99.90;;;;;;5063270;28;20164;-91
2021/10/04 00:49:57;;;;;;;9.13;5.40;;;10.30;99.90;;;;;;5063896;28;20160;-95
2021/10/04 00:52:26;;;;;;;11.27;5.70;;;10.20;99.90;;;;;;5058520;28;20179;-96
2021/10/04 00:54:52;;;;;;;8.07;5.17;;;10.20;99.90;;;;;;5057067;28;20180;-96
2021/10/04 00:57:19;;;;;;;6.77;4.90;;;10.40;99.90;;;;;;5022537;28;20257;-96
2021/10/04 00:59:45;;;;;;;11.67;5.60;;;10.20;99.90;;;;;;5038560;28;20282;-96
2021/10/04 01:02:11;;;;;;;9.45;5.75;;;10.20;99.90;;;;;;5039324;28;20267;-96
2021/10/04 01:04:37;;;;;;;11.52;5.22;;;10.20;99.90;;;;;;5022099;28;20629;-95
2021/10/04 01:07:03;;;;;;;7.70;5.32;;;10.20;99.90;;;;;;5022365;28;20202;-96
2021/10/04 01:09:29;;;;;;;11.97;5.37;;;10.20;99.90;;;;;;5038885;28;20305;-96
2021/10/04 01:11:57;;;;;;;12.40;5.35;;;10.20;99.90;;;;;;5038243;28;20296;-96
2021/10/04 01:14:24;;;;;;;15.73;5.35;;;10.10;99.90;;;;;;5038946;28;20528;-95
2021/10/04 01:16:50;;;;;;;9.17;5.13;;;10.10;99.90;;;;;;5056315;28;20661;-95
2021/10/04 01:19:16;;;;;;;11.60;5.30;;;10.10;99.90;;;;;;5022319;28;20338;-96
2021/10/04 01:21:42;;;;;;;10.67;5.80;;;10.00;99.90;;;;;;5038414;28;20241;-95
2021/10/04 01:24:09;;;;;;;8.63;5.30;;;9.90;99.90;;;;;;5038498;28;20543;-95
2021/10/04 01:26:35;;;;;;;10.50;5.70;;;9.80;99.90;;;;;;5038279;28;20179;-96
2021/10/04 01:29:01;;;;;;;9.60;5.60;;;9.70;99.90;;;;;;5038731;28;20210;-95
2021/10/04 01:31:27;;;;;;;9.30;4.87;;;9.60;99.90;;;;;;5038381;28;20645;-95
2021/10/04 01:33:55;;;;;;;15.23;5.60;;;9.50;99.90;;;;;;5055442;28;20778;-95
2021/10/04 01:36:25;;;;;;;8.97;5.90;;;9.40;99.90;;;;;;5038174;28;20237;-96
2021/10/04 01:38:51;;;;;;;9.10;5.77;;;9.40;99.90;;;;;;5055937;28;20176;-96
2021/10/04 01:41:17;;;;;;;8.47;6.10;;;9.40;99.90;;;;;;5021675;28;20207;-95
2021/10/04 01:43:43;;;;;;;8.37;5.73;;;9.30;99.90;;;;;;5037864;28;20176;-96
2021/10/04 01:46:09;;;;;;;8.47;5.30;;;9.30;99.90;;;;;;5038128;28;20629;-95
2021/10/04 01:48:35;;;;;;;13.23;6.47;;;9.30;99.90;;;;;;5055832;28;20176;-91
2021/10/04 01:51:01;;;;;;;11.73;6.17;;;9.20;99.90;;;;;;5038084;28;20317;-96
2021/10/04 01:53:26;;;;;;;13.40;6.43;;;9.20;99.90;;;;;;5038008;28;20184;-95
2021/10/04 01:55:52;;;;;;;14.47;6.73;;;9.10;99.90;;;;;;5055299;28;20651;-95
2021/10/04 01:58:18;;;;;;;12.27;6.47;;;9.10;99.90;;;;;;5037854;28;20211;-95
2021/10/04 02:00:44;;;;;;;9.63;6.53;;;9.10;99.90;;;;;;5037506;28;20659;-96
2021/10/04 02:03:10;;;;;;;11.30;7.53;;;8.90;99.90;;;;;;5038073;28;20183;-95
2021/10/04 02:05:36;;;;;;;12.97;7.50;;;8.80;99.90;;;;;;5037497;28;20224;-95
2021/10/04 02:08:02;;;;;;;15.00;8.13;;;8.80;99.90;;;;;;5037282;28;20187;-95
2021/10/04 02:10:37;;;;;;;15.80;8.53;;;8.80;99.90;;;;;;5037591;28;20592;-95
2021/10/04 02:13:05;;;;;;;11.10;7.27;;;8.80;99.90;;;;;;5037517;28;20183;-95
2021/10/04 02:15:31;;;;;;;13.37;8.73;;;8.90;99.90;;;;;;5037712;28;20250;-95
2021/10/04 02:17:57;;;;;;;14.60;8.33;;;8.90;99.90;;;;;;5037331;28;20662;-96
2021/10/04 02:20:27;;;;;;;22.20;8.83;;;8.80;99.90;;;;;;5039086;28;20180;-96
2021/10/04 02:22:53;;;;;;;18.37;8.37;;;8.70;99.90;;;;;;5040897;28;20176;-96
2021/10/04 02:25:19;;;;;;;15.17;8.07;;;8.80;99.90;;;;;;5040543;28;20176;-96
2021/10/04 02:27:46;;;;;;;17.23;8.07;;;8.70;99.90;;;;;;5038657;28;20710;-96
2021/10/04 02:30:20;;;;;;;15.53;8.20;;;8.80;99.90;;;;;;5047649;28;20190;-96
2021/10/04 02:32:46;;;;;;;11.67;7.93;;;8.90;99.90;;;;;;5038238;28;20186;-96
2021/10/04 02:35:12;;;;;;;16.63;7.70;;;8.80;99.90;;;;;;5039965;28;20184;-96
2021/10/04 02:37:39;;;;;;;13.97;7.53;;;8.60;99.90;;;;;;5042870;28;20211;-95
2021/10/04 02:40:06;;;;;;;14.10;8.10;;;8.80;99.90;;;;;;5021720;28;20188;-95
2021/10/04 02:42:32;;;;;;;13.07;7.53;;;8.60;99.90;;;;;;5038341;28;20184;-95
2021/10/04 02:45:00;;;;;;;16.47;7.17;;;8.60;99.90;;;;;;5036968;28;20581;-96
2021/10/04 02:47:26;;;;;;;15.33;7.97;;;8.60;99.90;;;;;;5037671;28;20533;-96
2021/10/04 02:49:52;;;;;;;13.80;7.27;;;8.60;99.90;;;;;;5054730;28;20176;-96
2021/10/04 02:52:21;;;;;;;13.13;7.63;;;8.70;99.90;;;;;;5055043;28;20616;-96
2021/10/04 02:54:46;;;;;;;11.40;7.57;;;8.60;99.90;;;;;;5037162;28;20175;-95
2021/10/04 02:57:12;;;;;;;15.57;7.97;;;8.70;99.90;;;;;;5021764;28;20223;-96
2021/10/04 02:59:38;;;;;;;16.30;8.07;;;8.70;99.90;;;;;;5039755;28;20509;-96
2021/10/04 03:02:04;;;;;;;12.37;7.60;;;8.60;99.90;;;;;;5039654;28;20176;-96
2021/10/04 03:04:30;;;;;;;13.30;7.67;;;8.40;99.90;;;;;;5039685;28;20241;-96
2021/10/04 03:06:55;;;;;;;15.60;8.60;;;8.40;99.90;;;;;;5055132;28;20184;-95
2021/10/04 03:09:24;;;;;;;14.20;7.77;;;8.40;99.90;;;;;;5055957;28;20180;-94
2021/10/04 03:11:49;;;;;;;14.43;8.10;;;8.40;99.90;;;;;;5047876;28;20203;-95
2021/10/04 03:14:15;;;;;;;14.67;8.33;;;8.30;99.90;;;;;;5030127;28;20179;-95
2021/10/04 03:16:41;;;;;;;12.80;8.00;;;8.40;99.90;;;;;;5070924;22;20271;-94
2021/10/04 03:19:07;;;;;;;13.13;8.47;;;8.30;99.90;;;;;;5025339;28;20189;-94
2021/10/04 03:21:33;;;;;;;12.37;8.53;;;8.30;99.90;;;;;;5015464;28;20665;-96
2021/10/04 03:23:58;;;;;;;14.13;8.23;;;8.30;99.90;;;;;;5014021;28;20662;-94
2021/10/04 03:26:24;;;;;;;13.90;8.60;;;8.30;99.90;;;;;;4974654;28;20189;-96
2021/10/04 03:28:50;;;;;;;14.30;8.43;;;8.30;99.90;;;;;;4993329;28;20177;-96
2021/10/04 03:31:16;;;;;;;14.67;8.57;;;8.30;99.90;;;;;;4992932;28;20178;-96
2021/10/04 03:33:41;;;;;;;15.00;9.30;;;8.30;99.90;;;;;;5003813;28;20268;-94
2021/10/04 03:36:07;;;;;;;13.30;8.33;;;8.30;99.90;;;;;;4998344;28;20217;-94
2021/10/04 03:38:33;;;;;;;19.10;12.83;;;8.30;99.90;;;;;;5012292;28;20241;-95
2021/10/04 03:40:59;;;;;;;19.43;10.97;;;8.40;99.90;;;;;;4991335;28;20690;-94
2021/10/04 03:43:25;;;;;;;16.27;10.97;;;8.40;99.90;;;;;;5013659;28;20697;-94
2021/10/04 03:45:51;;;;;;;15.57;10.83;;;8.40;99.90;;;;;;5008904;28;20186;-92
2021/10/04 03:48:16;;;;;;;17.10;9.33;;;8.50;99.90;;;;;;4994427;28;20181;-94
2021/10/04 03:50:42;;;;;;;15.17;9.03;;;8.50;99.90;;;;;;4985711;28;20186;-95
2021/10/04 03:53:08;;;;;;;17.73;9.53;;;8.50;99.90;;;;;;4985006;28;20288;-94
2021/10/04 03:55:34;;;;;;;13.70;7.93;;;8.50;99.90;;;;;;5007506;28;20694;-94
2021/10/04 03:58:00;;;;;;;12.10;7.67;;;8.70;99.90;;;;;;5004704;28;20674;-94
2021/10/04 04:00:27;;;;;;;16.67;8.73;;;8.70;99.90;;;;;;5006448;28;20197;-93
2021/10/04 04:02:53;;;;;;;14.27;9.80;;;8.80;99.90;;;;;;5010519;28;20177;-94
2021/10/04 04:05:19;;;;;;;17.50;9.43;;;8.90;99.90;;;;;;5005944;28;20603;-94
2021/10/04 04:07:46;;;;;;;17.50;8.43;;;9.00;99.90;;;;;;5008581;28;20193;-94
2021/10/04 04:10:13;;;;;;;13.70;7.63;;;9.10;99.90;;;;;;5026126;28;20208;-94
2021/10/04 04:12:39;;;;;;;9.77;6.83;;;9.10;99.90;;;;;;5028455;28;20181;-93
2021/10/04 04:15:06;;;;;;;11.43;7.53;;;9.10;99.90;;;;;;5021735;28;20304;-92
2021/10/04 04:17:32;;;;;;;11.53;7.53;;;9.20;99.90;;;;;;5017691;28;20267;-93
2021/10/04 04:19:58;;;;;;;10.77;7.60;;;9.20;99.90;;;;;;5018742;28;20182;-92
2021/10/04 04:22:24;;;;;;;12.87;7.93;;;9.30;99.90;;;;;;5019561;28;20642;-96
2021/10/04 04:24:50;;;;;;;11.97;7.13;;;9.30;99.90;;;;;;5003142;28;20181;-93
2021/10/04 04:27:16;;;;;;;17.30;7.33;;;9.30;99.90;;;;;;5019267;28;20324;-92
2021/10/04 04:29:42;;;;;;;14.50;6.67;;;9.30;99.90;;;;;;5018408;28;20646;-92
2021/10/04 04:32:10;;;;;;;10.50;6.87;;;9.30;99.90;;;;;;5016957;28;20178;-93
2021/10/04 04:34:36;;;;;;;9.57;6.70;;;9.30;99.90;;;;;;5017120;28;20181;-93
2021/10/04 04:37:03;;;;;;;10.83;6.97;;;9.30;99.90;;;;;;5016514;28;20220;-93
2021/10/04 04:39:29;;;;;;;13.53;6.93;;;9.30;99.90;;;;;;5017279;28;20373;-93
2021/10/04 04:41:55;;;;;;;12.80;7.23;;;9.30;99.90;;;;;;4999023;28;20185;-92
2021/10/04 04:44:21;;;;;;;17.47;8.50;;;9.40;99.90;;;;;;5015764;28;20182;-92
2021/10/04 04:46:47;;;;;;;12.80;8.43;;;9.40;99.90;;;;;;4999124;28;20208;-93
2021/10/04 04:49:13;;;;;;;15.70;8.13;;;9.40;99.90;;;;;;5015702;28;20197;-92
2021/10/04 04:51:39;;;;;;;21.83;7.93;;;9.40;99.90;;;;;;4999305;28;20272;-95
2021/10/04 04:54:04;;;;;;;19.17;7.97;;;9.30;99.90;;;;;;4997583;28;20195;-91
2021/10/04 04:56:30;;;;;;;14.20;7.53;;;9.50;99.90;;;;;;5017842;28;20184;-92
2021/10/04 04:58:56;;;;;;;18.47;7.73;;;9.40;99.90;;;;;;5014489;28;20235;-91
2021/10/04 05:01:22;;;;;;;13.27;7.47;;;9.40;99.90;;;;;;4985739;28;20567;-91
2021/10/04 05:03:47;;;;;;;17.93;6.90;;;9.50;99.90;;;;;;5015956;28;20185;-91
2021/10/04 05:06:13;;;;;;;11.23;7.17;;;9.50;99.90;;;;;;5014713;28;20585;-90
2021/10/04 05:08:39;;;;;;;14.33;6.77;;;9.50;99.90;;;;;;5015290;28;20189;-90
2021/10/04 05:11:05;;;;;;;14.27;6.87;;;9.60;99.90;;;;;;5014148;28;20532;-91
2021/10/04 05:13:31;;;;;;;12.00;6.63;;;9.60;99.90;;;;;;5015140;28;20716;-90
2021/10/04 05:15:56;;;;;;;12.53;7.07;;;9.70;99.90;;;;;;5014984;28;20205;-87
2021/10/04 05:18:23;;;;;;;18.67;7.40;;;9.70;99.90;;;;;;4981782;28;20216;-89
2021/10/04 05:20:48;;;;;;;16.43;6.40;;;9.70;99.90;;;;;;5014101;28;20178;-90
2021/10/04 05:23:14;;;;;;;15.03;6.77;;;9.80;99.90;;;;;;5015859;28;20238;-90
2021/10/04 05:25:40;;;;;;;19.93;7.27;;;9.80;99.90;;;;;;5018180;28;20216;-90
2021/10/04 05:28:05;;;;;;;11.63;6.80;;;9.90;99.90;;;;;;5036034;28;20228;-88
2021/10/04 05:30:31;;;;;;;11.70;5.60;;;9.90;99.90;;;;;;5016925;28;20197;-89
2021/10/04 05:32:57;;;;;;;13.43;6.00;;;10.00;99.90;;;;;;5012259;28;20258;-89
2021/10/04 05:35:22;;;;;;;13.70;6.40;;;10.00;99.90;;;;;;5013612;28;20188;-88
2021/10/04 05:37:49;;;;;;;15.60;6.23;;;10.10;99.90;;;;;;5015062;28;20213;-90
2021/10/04 05:40:17;;;;;;;9.63;5.70;;;10.10;99.90;;;;;;5013906;28;20188;-90
2021/10/04 05:42:44;;;;;;;14.83;6.23;;;10.20;99.90;;;;;;5013609;28;20181;-89
2021/10/04 05:45:12;;;;;;;11.53;6.03;;;10.30;99.90;;;;;;4996097;28;20219;-91
2021/10/04 05:47:38;;;;;;;12.00;6.20;;;10.40;99.90;;;;;;5013256;28;20268;-90
2021/10/04 05:50:05;;;;;;;9.13;5.80;;;10.50;99.90;;;;;;5013572;28;20186;-89
2021/10/04 05:52:31;;;;;;;12.37;6.30;;;10.60;99.90;;;;;;5014031;28;20189;-90
2021/10/04 05:54:56;;;;;;;12.07;5.68;;;10.70;99.90;;;;;;4996669;28;20188;-93
2021/10/04 05:57:22;;;;;;;17.05;5.40;;;10.90;99.90;;;;;;4995729;28;20243;-90
2021/10/04 05:59:48;;;;;;;12.73;5.78;;;11.00;99.90;;;;;;4996756;28;20232;-89
2021/10/04 06:02:14;;;;;;;10.52;5.20;;;11.20;99.90;;;;;;5013883;28;20185;-91
2021/10/04 06:04:40;;;;;;;8.88;4.97;;;11.30;99.90;;;;;;5013685;28;20220;-92
2021/10/04 06:07:05;;;;;;;14.85;5.50;;;11.50;99.90;;;;;;4996223;28;20626;-91
2021/10/04 06:09:31;;;;;;;8.02;5.22;;;11.60;99.90;;;;;;4996555;28;20185;-91
2021/10/04 06:11:57;;;;;;;15.48;5.15;;;11.80;99.90;;;;;;5013768;28;20615;-90
2021/10/04 06:14:23;;;;;;;6.82;4.55;;;11.90;99.90;;;;;;4996688;28;20181;-92
2021/10/04 06:16:49;;;;;;;10.57;5.15;;;12.00;99.90;;;;;;4997023;28;20248;-91
2021/10/04 06:19:15;;;;;;;12.90;5.15;;;12.10;99.90;;;;;;4994557;28;20214;-91
2021/10/04 06:21:41;;;;;;;10.55;4.93;;;12.20;99.90;;;;;;5015441;28;20679;-90
2021/10/04 06:24:07;;;;;;;10.20;4.68;;;12.20;99.90;;;;;;5012919;28;20177;-90
2021/10/04 06:26:32;;;;;;;10.85;4.97;;;12.30;99.90;;;;;;5013011;28;20235;-92
2021/10/04 06:28:58;;;;;;;11.25;5.05;;;12.30;99.90;;;;;;5013123;28;20315;-90
2021/10/04 06:31:25;;;;;;;9.27;4.53;;;12.40;99.90;;;;;;5012393;28;20185;-90
2021/10/04 06:33:51;;;;;;;9.75;4.82;;;12.40;99.90;;;;;;5012255;28;20216;-90
2021/10/04 06:36:17;;;;;;;18.58;5.55;;;12.40;99.90;;;;;;5011809;28;20185;-91
2021/10/04 06:38:43;;;;;;;9.35;5.55;;;12.50;99.90;;;;;;5013190;28;20284;-90
2021/10/04 06:41:09;;;;;;;9.43;5.40;;;12.60;99.90;;;;;;5008821;28;20196;-88
2021/10/04 06:43:34;;;;;;;10.68;4.68;;;12.70;99.90;;;;;;5011639;28;20181;-89
2021/10/04 06:46:00;;;;;;;7.03;4.70;;;12.70;99.90;;;;;;5013871;28;20185;-89
2021/10/04 06:48:26;;;;;;;12.57;4.95;;;12.80;99.90;;;;;;5012812;28;20181;-90
2021/10/04 06:50:53;;;;;;;11.57;5.72;;;12.80;99.90;;;;;;4978005;28;20631;-90
2021/10/04 06:53:19;;;;;;;8.95;4.97;;;12.90;99.90;;;;;;4995459;28;20208;-89
2021/10/04 06:55:45;;;;;;;14.10;5.45;;;13.00;99.90;;;;;;5012494;28;20277;-89
2021/10/04 06:58:11;;;;;;;13.43;4.88;;;13.10;99.90;;;;;;4994674;28;20284;-87
2021/10/04 07:00:37;;;;;;;11.20;4.78;;;13.20;99.90;;;;;;4978598;28;20336;-90
2021/10/04 07:03:03;;;;;;;11.10;4.95;;;13.30;99.90;;;;;;4992934;28;20187;-89
2021/10/04 07:05:29;;;;;;;9.05;5.40;;;13.40;99.90;;;;;;4978588;28;20638;-89
2021/10/04 07:07:56;;;;;;;13.85;5.13;;;13.80;99.90;;;;;;5011248;28;20588;-89
2021/10/04 07:10:23;;;;;;;11.70;5.05;;;13.70;99.90;;;;;;5009699;28;20205;-90
2021/10/04 07:12:49;;;;;;;11.27;4.72;;;13.80;99.90;;;;;;5012386;28;20658;-90
2021/10/04 07:15:18;;;;;;;8.18;4.60;;;13.90;99.90;;;;;;4995865;28;20187;-89
2021/10/04 07:17:43;;;;;;;8.55;4.90;;;14.00;99.90;;;;;;5010706;28;20237;-88
2021/10/04 07:20:09;;;;;;;9.65;5.05;;;14.00;99.90;;;;;;5009903;28;20192;-90
2021/10/04 07:22:37;;;;;;;7.32;4.70;;;14.30;99.90;;;;;;5008716;28;20189;-89
2021/10/04 07:25:06;;;;;;;8.82;4.75;;;15.00;99.90;;;;;;5009046;28;20182;-88
2021/10/04 07:27:32;;;;;;;10.18;4.63;;;14.30;99.90;;;;;;5008780;28;20192;-90
2021/10/04 07:29:58;;;;;;;9.60;5.15;;;14.60;99.90;;;;;;5009620;28;20174;-89
2021/10/04 07:32:26;;;;;;;8.13;5.15;;;14.60;99.90;;;;;;5007898;28;20178;-90
2021/10/04 07:34:51;;;;;;;18.38;5.43;;;14.70;99.90;;;;;;5009949;28;20176;-87
2021/10/04 07:37:17;;;;;;;10.68;4.75;;;14.80;99.90;;;;;;4993717;28;20220;-89
2021/10/04 07:39:43;;;;;;;13.60;4.50;;;15.10;99.90;;;;;;5010538;28;20184;-87
2021/10/04 07:42:09;;;;;;;13.45;4.78;;;15.40;99.90;;;;;;4993899;28;20220;-89
2021/10/04 07:44:34;;;;;;;7.50;4.53;;;15.40;99.90;;;;;;5011445;28;20180;-91
2021/10/04 07:47:02;;;;;;;16.67;4.95;;;15.60;99.90;;;;;;5010735;28;20269;-90
2021/10/04 07:49:29;;;;;;;7.93;4.45;;;15.70;99.90;;;;;;5012980;28;20249;-89
2021/10/04 07:51:58;;;;;;;10.25;4.32;;;16.00;99.90;;;;;;5010661;28;20189;-90
2021/10/04 07:54:24;;;;;;;9.05;3.92;;;15.90;99.90;;;;;;5012359;28;20188;-89
2021/10/04 07:56:50;;;;;;;9.25;4.00;;;16.10;99.90;;;;;;5013196;28;20200;-90
2021/10/04 07:59:16;;;;;;;6.32;4.82;;;16.10;99.90;;;;;;5012201;28;20292;-91
2021/10/04 08:01:42;;;;;;;10.90;4.32;;;16.20;99.90;;;;;;5011917;28;20209;-91
2021/10/04 08:04:07;;;;;;;11.65;4.50;;;16.40;99.90;;;;;;5012012;28;20548;-90
2021/10/04 08:06:33;;;;;;;5.85;4.05;;;16.50;99.90;;;;;;5015207;28;20180;-90
2021/10/04 08:08:59;;;;;;;15.95;4.35;;;16.40;99.90;;;;;;5016257;28;20177;-92
2021/10/04 08:11:25;;;;;;;8.07;3.70;;;16.40;99.90;;;;;;5000876;28;20220;-91
2021/10/04 08:13:51;;;;;;;8.93;4.03;;;16.40;99.90;;;;;;5013042;28;20579;-91
2021/10/04 08:16:24;;;;;;;8.85;4.65;;;16.40;99.90;;;;;;5012206;28;20233;-91
2021/10/04 08:18:53;;;;;;;8.18;4.50;;;16.50;99.90;;;;;;5013408;28;20267;-90
2021/10/04 08:21:22;;;;;;;8.25;4.72;;;16.80;99.90;;;;;;5011907;28;20204;-91
2021/10/04 08:23:50;;;;;;;7.82;4.50;;;16.50;99.90;;;;;;5011859;28;20177;-90
2021/10/04 08:26:16;;;;;;;11.82;4.68;;;16.70;99.90;;;;;;5016858;28;20669;-90
2021/10/04 08:28:45;;;;;;;6.90;3.80;;;16.80;99.90;;;;;;5029883;28;20242;-91
2021/10/04 08:31:11;;;;;;;7.55;3.90;;;17.00;99.90;;;;;;5011789;28;20193;-91
2021/10/04 08:33:37;;;;;;;10.52;4.10;;;17.00;99.90;;;;;;5012326;28;20213;-91
2021/10/04 08:36:05;;;;;;;7.63;4.22;;;17.10;99.90;;;;;;5012834;28;20174;-89
2021/10/04 08:38:32;;;;;;;6.75;4.30;;;17.20;99.90;;;;;;5010055;28;20669;-90
2021/10/04 08:40:58;;;;;;;10.38;4.20;;;17.40;99.90;;;;;;5012085;28;20177;-95
2021/10/04 08:43:24;;;;;;;7.50;4.43;;;17.50;99.90;;;;;;5016030;28;20185;-89
2021/10/04 08:45:52;;;;;;;9.32;4.22;;;17.60;99.90;;;;;;4999687;28;20533;-92
2021/10/04 08:48:18;;;;;;;9.90;4.55;;;17.70;99.90;;;;;;5016263;28;20181;-93
2021/10/04 08:50:43;;;;;;;6.80;4.13;;;17.80;99.90;;;;;;5014857;28;20235;-90
2021/10/04 08:53:09;;;;;;;9.32;4.72;;;17.90;99.90;;;;;;4998199;28;20639;-92
2021/10/04 08:55:35;;;;;;;10.07;5.28;;;18.00;99.90;;;;;;5013038;28;20196;-90
2021/10/04 08:58:08;;;;;;;10.18;3.83;;;18.20;99.90;;;;;;4995483;28;20213;-91
2021/10/04 09:00:34;;;;;;;6.22;4.07;;;18.20;99.90;;;;;;5013896;28;20173;-90
2021/10/04 09:03:01;;;;;;;8.77;4.70;;;18.30;99.90;;;;;;5013835;28;20186;-93
2021/10/04 09:05:27;;;;;;;6.88;4.20;;;18.40;99.90;;;;;;5013962;28;20227;-91
2021/10/04 09:08:00;;;;;;;15.68;4.70;;;18.50;99.90;;;;;;4997211;28;20623;-91
2021/10/04 09:10:29;;;;;;;11.90;4.75;;;18.60;99.90;;;;;;5012974;28;20193;-91
2021/10/04 09:12:56;;;;;;;7.22;4.80;;;18.60;99.90;;;;;;5015580;28;20223;-91
2021/10/04 09:15:46;;;;;;;9.38;4.43;;;18.60;99.90;;;;;;5013974;28;20177;-91
2021/10/04 09:18:28;;;;;;;11.43;4.57;;;18.80;99.90;;;;;;5009453;28;20706;-93
2021/10/04 09:21:03;;;;;;;8.68;4.30;;;18.90;99.90;;;;;;5013358;28;20289;-91
2021/10/04 09:23:33;;;;;;;8.50;4.55;;;19.00;99.90;;;;;;5011408;28;20705;-91
2021/10/04 09:26:02;;;;;;;12.50;5.07;;;19.00;99.90;;;;;;5015526;28;20646;-90
2021/10/04 09:28:31;;;;;;;8.40;4.70;;;19.10;99.90;;;;;;5020405;28;20204;-89
2021/10/04 09:31:28;;;;;;;7.63;4.90;;;19.20;99.90;;;;;;5023209;28;20288;-89
2021/10/04 09:34:01;;;;;;;10.27;5.10;;;19.30;99.90;;;;;;5016399;28;20243;-89
2021/10/04 09:36:38;;;;;;;8.45;4.45;;;19.30;99.90;;;;;;5011689;28;20201;-90
2021/10/04 09:39:14;;;;;;;10.00;5.15;;;19.80;99.90;;;;;;5016815;28;20241;-91
2021/10/04 09:41:56;;;;;;;12.10;4.47;;;19.30;99.90;;;;;;5013930;28;20181;-92
2021/10/04 09:44:23;;;;;;;7.30;5.18;;;18.60;99.90;;;;;;5013090;28;20552;-91
2021/10/04 09:46:48;;;;;;;9.55;4.85;;;19.40;99.90;;;;;;4992962;28;20186;-92
2021/10/04 09:49:14;;;;;;;9.20;4.90;;;19.40;99.90;;;;;;5012275;28;20709;-91
2021/10/04 09:51:52;;;;;;;7.38;4.80;;;19.40;99.90;;;;;;5014059;28;20192;-92
2021/10/04 09:54:18;;;;;;;10.85;4.72;;;19.60;99.90;;;;;;5012443;28;20263;-93
2021/10/04 09:56:44;;;;;;;6.75;4.70;;;19.70;99.90;;;;;;4997949;28;20189;-93
2021/10/04 09:59:10;;;;;;;10.48;5.00;;;19.60;99.90;;;;;;5016109;28;20177;-92
2021/10/04 10:01:37;;;;;;;7.38;4.85;;;19.50;99.90;;;;;;5013620;28;20169;-90
2021/10/04 10:04:03;;;;;;;13.23;5.05;;;19.60;99.90;;;;;;5013643;28;20212;-93
2021/10/04 10:06:32;;;;;;;8.90;5.38;;;19.80;99.90;;;;;;5013842;28;20169;-94
2021/10/04 10:08:58;;;;;;;11.30;5.00;;;19.90;99.90;;;;;;5013539;28;20185;-93
2021/10/04 10:11:23;;;;;;;8.40;5.60;;;20.10;99.90;;;;;;5043174;23;20239;-93
2021/10/04 10:13:50;;;;;;;9.13;5.25;;;20.10;99.90;;;;;;5019034;28;20193;-95
2021/10/04 10:16:34;;;;;;;8.25;4.63;;;19.30;99.90;;;;;;5018402;28;20240;-94
2021/10/04 10:19:04;;;;;;;7.68;4.85;;;20.20;99.90;;;;;;5016137;28;20208;-92
2021/10/04 10:21:31;;;;;;;11.98;5.30;;;18.50;99.90;;;;;;5017650;28;20589;-91
2021/10/04 10:24:05;;;;;;;8.00;4.85;;;20.20;99.90;;;;;;5024203;28;20181;-93
2021/10/04 10:26:40;;;;;;;7.32;4.88;;;20.20;99.90;;;;;;5028762;28;20196;-91
2021/10/04 10:29:08;;;;;;;10.90;5.70;;;20.20;99.90;;;;;;5023836;28;20191;-92
2021/10/04 10:31:55;;;;;;;9.38;5.00;;;20.20;99.90;;;;;;5030779;28;20280;-92
2021/10/04 10:34:24;;;;;;;8.23;4.80;;;20.30;99.90;;;;;;5039980;28;20180;-93
2021/10/04 10:37:03;;;;;;;7.40;4.75;;;20.30;99.90;;;;;;5037741;28;20184;-93
2021/10/04 10:39:41;;;;;;;9.25;4.57;;;20.20;99.90;;;;;;5053974;28;20184;-93
2021/10/04 10:42:13;;;;;;;11.05;4.78;;;20.60;99.90;;;;;;5031528;28;20629;-92
2021/10/04 10:44:54;;;;;;;10.07;5.15;;;19.40;99.90;;;;;;5014387;28;20181;-94
2021/10/04 10:47:35;;;;;;;9.02;4.78;;;20.80;99.90;;;;;;5013946;28;20541;-92
2021/10/04 10:50:10;;;;;;;7.43;4.82;;;20.80;99.90;;;;;;5015262;28;20173;-92
2021/10/04 10:52:42;;;;;;;16.08;5.60;;;20.70;99.90;;;;;;5015658;28;20306;-92
2021/10/04 10:55:20;;;;;;;6.75;4.95;;;20.70;99.90;;;;;;5015416;28;20253;-92
2021/10/04 10:57:51;;;;;;;9.13;4.97;;;20.70;99.90;;;;;;5013841;28;20212;-93
2021/10/04 11:00:17;;;;;;;11.68;4.80;;;20.60;99.90;;;;;;5015623;28;20169;-93
2021/10/04 11:02:46;;;;;;;6.20;4.80;;;20.60;99.90;;;;;;5033429;28;20188;-93
2021/10/04 11:05:37;;;;;;;6.97;4.72;;;20.60;99.90;;;;;;5015250;28;20532;-92
2021/10/04 11:08:23;;;;;;;9.93;5.22;;;20.60;99.90;;;;;;5032892;28;20188;-92
2021/10/04 11:10:49;;;;;;;10.57;5.03;;;20.60;99.90;;;;;;5014932;28;20228;-92
2021/10/04 11:13:22;;;;;;;9.52;5.60;;;20.60;99.90;;;;;;5015337;28;20687;-92
2021/10/04 11:15:47;;;;;;;19.98;5.65;;;20.50;99.90;;;;;;5009189;28;20193;-91
2021/10/04 11:18:13;;;;;;;10.27;5.25;;;20.50;99.90;;;;;;5025194;28;20207;-91
2021/10/04 11:20:40;;;;;;;13.25;5.78;;;20.50;99.90;;;;;;5006428;28;20661;-92
2021/10/04 11:23:07;;;;;;;7.45;5.07;;;20.40;99.90;;;;;;4990654;28;20172;-91
2021/10/04 11:25:49;;;;;;;10.52;4.78;;;20.40;99.90;;;;;;5023649;28;20240;-92
2021/10/04 11:28:17;;;;;;;7.43;5.22;;;20.40;99.90;;;;;;5007934;28;20196;-91
2021/10/04 11:31:01;;;;;;;8.82;4.95;;;20.40;99.90;;;;;;5007285;28;20626;-91
2021/10/04 11:33:31;;;;;;;6.38;4.38;;;20.40;99.90;;;;;;5008591;28;20235;-91
2021/10/04 11:36:05;;;;;;;13.18;5.10;;;20.40;99.90;;;;;;5008668;28;20169;-92
2021/10/04 11:38:35;;;;;;;6.00;4.82;;;20.30;99.90;;;;;;5004564;28;20200;-91
2021/10/04 11:41:02;;;;;;;6.38;4.82;;;20.40;99.90;;;;;;5023453;28;20629;-92
2021/10/04 11:43:28;;;;;;;10.88;4.90;;;20.40;99.90;;;;;;4992340;28;20191;-92
2021/10/04 11:45:55;;;;;;;8.43;4.80;;;20.60;99.90;;;;;;5007174;28;20177;-92
2021/10/04 11:48:29;;;;;;;5.97;4.72;;;20.70;99.90;;;;;;5005050;28;20172;-90
2021/10/04 11:50:57;;;;;;;7.07;4.88;;;20.60;99.90;;;;;;5013975;28;20271;-91
2021/10/04 11:53:24;;;;;;;9.02;5.90;;;20.60;99.90;;;;;;4986187;28;20201;-92
2021/10/04 11:56:06;;;;;;;9.65;5.18;;;20.70;99.90;;;;;;5033538;28;20185;-92
2021/10/04 11:58:32;;;;;;;7.20;4.88;;;20.70;99.90;;;;;;5014209;28;20211;-90
2021/10/04 12:00:58;;;;;;;10.00;5.18;;;20.70;99.90;;;;;;4997923;28;20185;-91
2021/10/04 12:03:33;;;;;;;12.60;5.70;;;20.70;99.90;;;;;;4982066;28;20191;-91
2021/10/04 12:06:00;;;;;;;11.80;5.50;;;20.70;99.90;;;;;;5031781;28;20657;-90
2021/10/04 12:08:36;;;;;;;7.80;5.00;;;20.80;99.90;;;;;;5014975;28;20184;-92
2021/10/04 12:11:07;;;;;;;12.23;4.70;;;20.80;99.90;;;;;;5014568;28;20319;-89
2021/10/04 12:13:40;;;;;;;8.50;5.10;;;20.80;99.90;;;;;;4998000;28;20180;-91
2021/10/04 12:16:11;;;;;;;10.48;4.93;;;20.90;99.90;;;;;;5014614;28;20625;-91
2021/10/04 12:18:58;;;;;;;15.38;5.10;;;21.00;99.90;;;;;;5017205;28;20209;-91
2021/10/04 12:21:37;;;;;;;9.95;4.93;;;20.90;99.90;;;;;;5017818;28;20601;-92
2021/10/04 12:24:15;;;;;;;8.40;4.93;;;20.90;99.90;;;;;;5017373;28;20180;-90
2021/10/04 12:27:01;;;;;;;8.95;5.40;;;20.90;99.90;;;;;;5018100;28;20176;-90
2021/10/04 12:29:44;;;;;;;8.90;5.10;;;20.90;99.90;;;;;;5019207;28;20176;-92
2021/10/04 12:32:18;;;;;;;10.57;5.50;;;21.00;99.90;;;;;;5018660;28;20261;-91
2021/10/04 12:35:09;;;;;;;12.77;4.55;;;21.10;99.90;;;;;;5020186;28;20211;-92
2021/10/04 12:37:55;;;;;;;7.38;5.25;;;21.00;99.90;;;;;;5019195;28;20307;-91
2021/10/04 12:40:49;;;;;;;6.97;4.70;;;21.00;99.90;;;;;;5036208;28;20161;-92
2021/10/04 12:43:29;;;;;;;9.00;4.57;;;21.10;99.90;;;;;;5018478;28;20176;-91
2021/10/04 12:46:07;;;;;;;9.18;5.00;;;21.30;99.90;;;;;;5002214;28;20215;-92
2021/10/04 12:48:43;;;;;;;8.43;4.90;;;21.40;99.90;;;;;;5036588;28;20165;-92